createdAt,value
2023-03-31T00:01:30.063Z,21.92
2023-03-31T00:04:05.954Z,21.60
2023-03-31T00:06:42.802Z,25.92
2023-03-31T00:09:19.831Z,27.83
2023-03-31T00:11:50.778Z,18.83
2023-03-31T00:14:21.622Z,21.20
2023-03-31T00:16:50.770Z,20.15
2023-03-31T00:19:19.590Z,24.20
2023-03-31T00:21:52.637Z,27.33
2023-03-31T00:24:21.727Z,22.90
2023-03-31T00:26:50.499Z,19.83
2023-03-31T00:29:19.531Z,17.88
2023-03-31T00:31:48.327Z,28.10
2023-03-31T00:34:18.285Z,21.52
2023-03-31T00:36:48.495Z,30.88
2023-03-31T00:39:19.886Z,25.23
2023-03-31T00:41:48.966Z,27.10
2023-03-31T00:44:23.589Z,24.98
2023-03-31T00:47:03.934Z,23.02
2023-03-31T00:49:42.938Z,34.35
2023-03-31T00:52:26.599Z,19.52
2023-03-31T00:55:03.772Z,19.92
2023-03-31T00:57:37.904Z,25.65
2023-03-31T01:00:17.365Z,29.65
2023-03-31T01:02:59.912Z,27.50
2023-03-31T01:05:44.314Z,23.77
2023-03-31T01:08:14.634Z,32.88
2023-03-31T01:10:52.162Z,25.42
2023-03-31T01:13:22.826Z,23.85
2023-03-31T01:15:52.414Z,38.50
2023-03-31T01:18:22.706Z,27.70
2023-03-31T01:20:57.762Z,32.55
2023-03-31T01:23:44.931Z,37.15
2023-03-31T01:26:31.678Z,35.47
2023-03-31T01:29:22.157Z,33.55
2023-03-31T01:32:09.844Z,33.80
2023-03-31T01:35:04.809Z,43.25
2023-03-31T01:38:04.495Z,34.55
2023-03-31T01:40:53.421Z,30.02
2023-03-31T01:43:37.589Z,29.30
2023-03-31T01:46:21.402Z,30.10
2023-03-31T01:48:59.375Z,23.80
2023-03-31T01:51:34.336Z,21.58
2023-03-31T01:54:08.435Z,31.70
2023-03-31T01:56:53.687Z,21.58
2023-03-31T02:02:05.290Z,20.75
2023-03-31T02:04:43.411Z,31.20
2023-03-31T02:07:23.033Z,25.63
2023-03-31T02:09:58.518Z,28.92
2023-03-31T02:12:30.464Z,33.13
2023-03-31T02:15:02.639Z,31.63
2023-03-31T02:17:33.866Z,25.52
2023-03-31T02:20:09.296Z,20.00
2023-03-31T02:22:42.385Z,25.88
2023-03-31T02:25:15.273Z,25.48
2023-03-31T02:27:49.360Z,27.20
2023-03-31T02:30:18.468Z,29.73
2023-03-31T02:32:48.128Z,33.05
2023-03-31T02:35:20.455Z,26.70
2023-03-31T12:08:24.010Z,31.65
2023-03-31T12:11:00.317Z,33.75
2023-03-31T12:13:56.626Z,41.38
2023-03-31T12:16:50.924Z,39.75
2023-03-31T12:19:38.098Z,38.58
2023-03-31T12:22:19.159Z,41.20
2023-03-31T12:24:48.349Z,35.47
2023-03-31T12:27:20.278Z,31.70
2023-03-31T12:30:23.247Z,31.15
2023-03-31T12:32:58.202Z,29.23
2023-03-31T12:35:57.760Z,32.25
2023-03-31T12:38:43.077Z,31.50
2023-03-31T12:41:26.711Z,31.98
2023-03-31T12:44:19.381Z,27.23
2023-03-31T12:46:57.763Z,31.58
2023-03-31T12:49:51.523Z,34.25
2023-03-31T12:52:45.686Z,31.60
2023-03-31T12:55:33.148Z,31.75
2023-03-31T12:58:35.928Z,31.10
2023-03-31T13:01:15.658Z,24.92
2023-03-31T13:04:22.107Z,31.33
2023-03-31T13:06:57.224Z,30.85
2023-03-31T13:09:45.678Z,31.00
2023-03-31T13:12:23.817Z,30.40
2023-03-31T13:14:55.608Z,34.80
2023-03-31T13:17:28.851Z,30.08
2023-03-31T13:20:17.789Z,34.38
2023-03-31T13:22:53.689Z,31.40
2023-03-31T13:25:40.317Z,32.85
2023-03-31T13:28:17.321Z,30.50
2023-03-31T13:30:48.329Z,37.47
2023-03-31T13:33:37.575Z,36.88
2023-03-31T13:36:33.680Z,33.78
2023-03-31T13:39:39.838Z,36.88
2023-03-31T13:42:27.298Z,38.97
2023-03-31T13:45:15.511Z,44.35
2023-03-31T13:48:08.598Z,40.60
2023-03-31T13:53:18.241Z,47.33
2023-03-31T13:56:24.941Z,50.53
2023-03-31T13:59:34.393Z,48.20
2023-03-31T14:02:30.857Z,43.72
2023-03-31T14:05:31.910Z,36.97
2023-03-31T14:08:07.511Z,36.63
2023-03-31T14:10:39.568Z,33.10
2023-03-31T14:13:18.553Z,31.73
2023-03-31T14:15:58.187Z,29.85
2023-03-31T14:18:30.642Z,37.20
2023-03-31T14:21:25.919Z,31.15
2023-03-31T14:24:36.231Z,27.30
2023-03-31T14:27:26.529Z,30.95
2023-03-31T14:30:14.337Z,29.00
2023-03-31T14:33:07.891Z,29.48
2023-03-31T14:35:58.892Z,33.63
2023-03-31T14:38:30.944Z,32.33
2023-03-31T14:41:04.343Z,37.80
2023-03-31T14:43:42.356Z,31.90
2023-03-31T14:46:11.711Z,34.90
2023-03-31T14:48:48.185Z,41.22
2023-03-31T14:51:20.019Z,50.13
2023-03-31T14:53:49.042Z,54.93
2023-03-31T14:56:24.497Z,57.22
2023-03-31T14:58:55.695Z,69.45
2023-03-31T15:01:35.394Z,70.13
2023-03-31T15:04:16.834Z,67.03
2023-03-31T15:06:51.651Z,64.25
2023-03-31T15:09:34.596Z,68.15
2023-03-31T15:14:49.850Z,69.22
2023-03-31T15:17:25.492Z,71.85
2023-03-31T15:20:00.137Z,57.13
2023-03-31T15:22:30.858Z,53.95
2023-03-31T15:25:00.776Z,48.83
2023-03-31T15:27:38.724Z,47.22
2023-03-31T15:30:10.794Z,40.25
2023-03-31T15:32:41.842Z,39.05
2023-03-31T15:35:35.624Z,45.70
2023-03-31T15:38:08.682Z,35.53
2023-03-31T15:40:44.381Z,31.40
2023-03-31T15:43:25.776Z,30.88
2023-03-31T15:45:57.462Z,31.42
2023-03-31T15:48:38.808Z,31.90
2023-03-31T15:51:21.632Z,31.38
2023-03-31T15:56:42.179Z,38.15
2023-03-31T15:59:37.845Z,74.43
2023-03-31T16:02:30.583Z,80.95
2023-03-31T16:05:02.931Z,81.20
2023-03-31T16:07:36.652Z,67.85
2023-03-31T16:10:23.970Z,55.10
2023-03-31T16:13:04.623Z,49.03
2023-03-31T16:15:45.541Z,37.10
2023-03-31T16:18:40.530Z,38.22
2023-03-31T16:21:11.545Z,41.13
2023-03-31T16:23:43.647Z,33.58
2023-03-31T16:26:14.445Z,37.55
2023-03-31T16:28:53.804Z,34.47
2023-03-31T16:31:40.677Z,38.10
2023-03-31T16:34:13.107Z,31.92
2023-03-31T16:36:44.015Z,32.25
2023-03-31T16:39:13.841Z,39.25
2023-03-31T16:41:45.984Z,32.45
2023-03-31T16:44:15.748Z,31.95
2023-03-31T16:46:45.243Z,31.00
2023-03-31T16:49:15.098Z,40.17
2023-03-31T16:51:44.466Z,26.88
2023-03-31T16:54:13.851Z,30.13
2023-03-31T16:56:42.857Z,26.30
2023-03-31T16:59:11.959Z,27.02
2023-03-31T17:01:40.962Z,25.85
2023-03-31T17:04:10.175Z,24.30
2023-03-31T17:06:38.937Z,26.17
2023-03-31T17:09:07.985Z,28.77
2023-03-31T17:11:37.646Z,25.70
2023-03-31T17:14:07.109Z,23.83
2023-03-31T17:16:47.330Z,28.65
2023-03-31T17:19:18.811Z,22.95
2023-03-31T17:21:47.857Z,25.90
2023-03-31T17:24:16.784Z,31.90
2023-03-31T17:26:45.891Z,34.67
2023-03-31T17:29:15.581Z,33.80
2023-03-31T17:31:46.144Z,32.35
2023-03-31T17:34:15.295Z,44.53
2023-03-31T17:36:45.267Z,37.70
2023-03-31T17:39:14.323Z,44.00
2023-03-31T17:41:43.129Z,47.65
2023-03-31T17:44:13.119Z,47.10
2023-03-31T17:46:42.004Z,40.15
2023-03-31T17:49:11.240Z,49.53
2023-03-31T17:51:40.060Z,42.13
2023-03-31T17:54:09.231Z,42.65
2023-03-31T17:56:38.793Z,47.95
2023-03-31T17:59:07.994Z,48.72
2023-03-31T18:01:36.929Z,39.75
2023-03-31T18:04:05.919Z,45.95
2023-03-31T18:06:35.163Z,40.08
2023-03-31T18:09:06.660Z,41.67
2023-03-31T18:11:35.897Z,46.05
2023-03-31T18:14:05.262Z,40.42
2023-03-31T18:16:34.800Z,49.42
2023-03-31T18:19:03.874Z,45.95
2023-03-31T18:21:32.880Z,51.45
2023-03-31T18:24:01.712Z,53.88
2023-03-31T18:26:31.037Z,43.20
2023-03-31T18:29:00.131Z,57.55
2023-03-31T18:31:29.163Z,45.50
2023-03-31T18:33:58.667Z,44.03
2023-03-31T18:36:28.744Z,42.08
2023-03-31T18:38:58.325Z,50.30
2023-03-31T18:41:27.208Z,41.45
2023-03-31T18:43:56.238Z,47.45
2023-03-31T18:46:25.196Z,52.38
2023-03-31T18:48:54.142Z,54.60
2023-03-31T18:51:22.953Z,40.67
2023-03-31T18:53:52.227Z,37.28
2023-03-31T18:56:21.018Z,38.22
2023-03-31T18:58:50.143Z,41.25
2023-03-31T19:01:19.153Z,38.13
2023-03-31T19:03:48.646Z,36.22
2023-03-31T19:06:18.654Z,37.70
2023-03-31T19:08:47.762Z,41.20
2023-03-31T19:11:18.020Z,50.83
2023-03-31T19:13:47.740Z,52.70
2023-03-31T19:16:17.255Z,53.65
2023-03-31T19:21:42.669Z,48.10
2023-03-31T19:24:11.738Z,47.05
2023-03-31T19:26:40.606Z,45.72
2023-03-31T19:29:09.695Z,42.47
2023-03-31T19:31:42.326Z,39.90
2023-03-31T19:34:17.374Z,39.80
2023-03-31T19:36:46.606Z,37.38
2023-03-31T19:39:15.435Z,52.15
2023-03-31T19:41:44.422Z,38.30
2023-03-31T19:44:13.120Z,38.65
2023-03-31T19:46:42.280Z,33.78
2023-03-31T19:49:11.026Z,43.85
2023-03-31T19:51:39.962Z,41.05
2023-03-31T19:54:10.563Z,46.17
2023-03-31T19:56:39.866Z,43.92
2023-03-31T19:59:08.737Z,45.70
2023-03-31T20:01:38.654Z,41.65
2023-03-31T20:04:08.456Z,40.80
2023-03-31T20:06:38.116Z,38.90
2023-03-31T20:09:07.855Z,52.38
2023-03-31T20:11:38.388Z,40.17
2023-03-31T20:14:08.934Z,36.08
2023-03-31T20:16:39.561Z,42.30
2023-03-31T20:19:09.984Z,41.90
2023-03-31T20:21:41.153Z,39.22
2023-03-31T20:24:19.908Z,43.13
2023-03-31T20:26:49.745Z,41.15
2023-03-31T20:29:19.491Z,39.55
2023-03-31T20:31:51.589Z,52.05
2023-03-31T20:34:23.794Z,54.22
2023-03-31T20:36:53.749Z,51.08
2023-03-31T20:39:23.312Z,61.75
2023-03-31T20:41:53.444Z,69.13
2023-03-31T20:44:24.026Z,63.92
2023-03-31T20:46:54.465Z,66.68
2023-03-31T20:49:24.508Z,76.72
2023-03-31T20:51:54.526Z,81.00
2023-03-31T20:54:24.550Z,87.50
2023-03-31T20:56:54.392Z,115.22
2023-03-31T20:59:25.151Z,120.40
2023-03-31T21:01:55.149Z,139.80
2023-03-31T21:04:24.742Z,142.90
2023-03-31T21:06:55.076Z,159.45
2023-03-31T21:09:25.324Z,156.68
2023-03-31T21:11:55.105Z,154.57
2023-03-31T21:14:24.795Z,137.95
2023-03-31T21:16:54.681Z,145.18
2023-03-31T21:19:24.383Z,135.65
2023-03-31T21:21:54.114Z,149.93
2023-03-31T21:24:23.835Z,121.45
2023-03-31T21:26:53.805Z,112.05
2023-03-31T21:29:23.551Z,120.30
2023-03-31T21:31:53.395Z,101.45
2023-03-31T21:34:24.320Z,96.60
2023-03-31T21:36:54.940Z,91.68
2023-03-31T21:39:24.027Z,84.35
2023-03-31T21:41:53.066Z,74.15
2023-03-31T21:44:24.861Z,61.15
2023-03-31T21:46:53.914Z,71.93
2023-03-31T21:49:22.882Z,75.85
2023-03-31T21:51:51.862Z,73.43
2023-03-31T21:54:20.720Z,72.35
2023-03-31T21:56:49.828Z,82.97
2023-03-31T21:59:18.639Z,77.22
2023-03-31T22:01:48.065Z,76.38
2023-03-31T22:04:16.998Z,83.28
2023-03-31T22:06:45.788Z,79.88
2023-03-31T22:09:14.469Z,70.70
2023-03-31T22:11:43.771Z,76.70
2023-03-31T22:14:12.600Z,69.22
2023-03-31T22:16:41.614Z,68.72
2023-03-31T22:19:14.124Z,66.22
2023-03-31T22:24:14.671Z,49.88
2023-03-31T22:26:43.717Z,49.42
2023-03-31T22:29:17.306Z,47.47
2023-03-31T22:31:46.532Z,43.90
2023-03-31T22:34:16.424Z,37.63
2023-03-31T22:36:45.568Z,41.13
2023-03-31T22:39:17.379Z,36.80
2023-03-31T22:41:46.901Z,39.70
2023-03-31T22:44:15.636Z,49.33
2023-03-31T22:46:47.722Z,56.65
2023-03-31T22:49:16.951Z,62.00
2023-03-31T22:51:46.079Z,73.28
2023-03-31T22:54:18.435Z,72.57
2023-03-31T22:56:47.352Z,70.53
2023-03-31T22:59:16.848Z,89.43
2023-03-31T23:01:48.004Z,112.50
2023-03-31T23:04:17.236Z,81.03
2023-03-31T23:06:46.080Z,79.50
2023-03-31T23:09:15.151Z,83.50
2023-03-31T23:11:45.780Z,99.75
2023-03-31T23:14:15.268Z,86.28
2023-03-31T23:16:44.331Z,96.32
2023-03-31T23:19:13.429Z,87.43
2023-03-31T23:21:42.114Z,74.93
2023-03-31T23:24:12.095Z,84.57
2023-03-31T23:26:40.832Z,83.40
2023-03-31T23:29:09.629Z,97.40
2023-03-31T23:31:38.858Z,93.43
2023-03-31T23:34:08.187Z,98.47
2023-03-31T23:36:37.371Z,92.38
2023-03-31T23:39:07.636Z,86.75
2023-03-31T23:41:36.655Z,86.95
2023-03-31T23:44:05.939Z,91.78
2023-03-31T23:46:34.982Z,85.85
2023-03-31T23:49:05.821Z,79.10
2023-03-31T23:51:34.850Z,83.00
2023-03-31T23:54:03.497Z,80.07
2023-03-31T23:56:32.705Z,74.38
2023-03-31T23:59:01.485Z,71.38
